Terminal Aerodrome Forecast
Issued by NWS

Home | Current Version | Previous Version | Text Only | Print | Product List | Glossary On
Versions: 1 2 3 4 5 6 7 8 9 10 11 12 13 14 15 16 17 18 19 20 21
000
FTUS41 KBOX 301513 AAA
TAFBAF
TAF AMD
KBAF 301513Z 3015/3112 00000KT P6SM OVC004
     FM301900 18005KT P6SM VCSH BKN015
     FM302100 22009KT P6SM VCTS BKN040CB
     FM310000 22008KT P6SM VCSH BKN040
     FM310400 20005KT 2SM BR VCSH BKN015
     FM310800 26005KT 4SM BR BKN015
     FM311100 32005KT P6SM SCT100=

USA.gov is the U.S. government's official web portal to all federal, state and local government web resources and services.